createdAt,value
2022-11-01T00:03:26.259Z,14.98
2022-11-01T00:08:22.387Z,14.90
2022-11-01T00:13:42.675Z,15.55
2022-11-01T00:18:57.688Z,15.98
2022-11-01T00:23:54.183Z,15.43
2022-11-01T00:28:54.542Z,15.38
2022-11-01T00:38:44.713Z,15.30
2022-11-01T00:43:38.306Z,15.07
2022-11-01T00:48:32.047Z,14.95
2022-11-01T00:53:26.789Z,15.90
2022-11-01T00:58:21.680Z,15.73
2022-11-01T01:03:14.933Z,15.02
2022-11-01T01:08:08.304Z,14.88
2022-11-01T01:13:01.844Z,14.73
2022-11-01T01:17:56.675Z,14.55
2022-11-01T01:22:50.246Z,14.73
2022-11-01T01:27:43.472Z,14.73
2022-11-01T01:32:37.566Z,12.32
2022-11-01T01:37:32.234Z,13.88
2022-11-01T01:42:30.722Z,13.55
2022-11-01T01:47:27.479Z,13.88
2022-11-01T01:52:21.491Z,13.93
2022-11-01T01:57:16.506Z,13.48
2022-11-01T02:02:09.949Z,15.02
2022-11-01T02:07:03.564Z,12.73
2022-11-01T02:11:56.888Z,12.32
2022-11-01T02:17:00.034Z,12.80
2022-11-01T02:22:02.830Z,12.48
2022-11-01T02:27:10.413Z,12.75
2022-11-01T02:32:18.530Z,13.65
2022-11-01T02:37:16.337Z,15.93
2022-11-01T02:42:15.826Z,12.38
2022-11-01T02:47:12.331Z,11.57
2022-11-01T02:52:08.408Z,11.52
2022-11-01T02:57:08.092Z,14.32
2022-11-01T03:02:08.636Z,20.17
2022-11-01T03:07:08.190Z,18.98
2022-11-01T03:12:07.019Z,17.33
2022-11-01T03:17:04.123Z,18.40
2022-11-01T03:22:06.871Z,17.13
2022-11-01T03:27:05.237Z,16.95
2022-11-01T03:32:00.408Z,15.57
2022-11-01T03:36:57.767Z,17.95
2022-11-01T03:41:57.511Z,16.15
2022-11-01T03:46:51.730Z,16.58
2022-11-01T03:51:45.070Z,16.23
2022-11-01T03:56:40.667Z,14.75
2022-11-01T04:01:35.855Z,12.32
2022-11-01T04:06:29.462Z,14.60
2022-11-01T04:11:22.726Z,11.95
2022-11-01T04:16:33.598Z,11.68
2022-11-01T04:26:22.626Z,11.15
2022-11-01T04:31:16.091Z,11.63
2022-11-01T04:36:10.375Z,11.32
2022-11-01T04:41:05.106Z,12.07
2022-11-01T04:46:00.457Z,12.07
2022-11-01T04:50:56.391Z,12.00
2022-11-01T04:56:12.864Z,12.48
2022-11-01T05:01:16.228Z,12.82
2022-11-01T05:06:15.584Z,12.50
2022-11-01T05:11:32.834Z,12.55
2022-11-01T05:16:27.797Z,13.98
2022-11-01T05:21:23.827Z,14.00
2022-11-01T05:26:17.463Z,14.18
2022-11-01T05:31:17.428Z,14.98
2022-11-01T05:36:13.429Z,15.63
2022-11-01T05:46:12.854Z,18.98
2022-11-01T05:51:06.524Z,16.95
2022-11-01T05:56:13.708Z,17.95
2022-11-01T06:01:12.447Z,17.42
2022-11-01T06:06:06.795Z,17.92
2022-11-01T06:11:22.886Z,18.10
2022-11-01T06:16:31.517Z,15.60
2022-11-01T06:21:55.664Z,14.95
2022-11-01T06:27:57.510Z,17.05
2022-11-01T06:33:17.386Z,17.45
2022-11-01T06:38:37.967Z,17.38
2022-11-01T06:43:49.327Z,17.73
2022-11-01T06:49:51.421Z,17.17
2022-11-01T07:02:14.548Z,18.92
2022-11-01T07:08:00.381Z,19.42
2022-11-01T07:13:33.911Z,21.02
2022-11-01T07:19:01.049Z,21.35
2022-11-01T07:37:04.616Z,19.98
2022-11-01T07:42:38.445Z,20.85
2022-11-01T07:47:56.341Z,21.58
2022-11-01T07:53:12.536Z,21.60
2022-11-01T07:58:11.680Z,20.95
2022-11-01T08:15:06.126Z,18.63
2022-11-01T08:20:18.551Z,18.70
2022-11-01T08:25:19.144Z,18.90
2022-11-01T08:30:18.153Z,19.88
2022-11-01T08:35:19.505Z,19.80
2022-11-01T08:40:13.758Z,19.05
2022-11-01T08:45:09.225Z,18.65
2022-11-01T08:50:07.135Z,19.42
2022-11-01T08:55:38.636Z,19.85
2022-11-01T09:00:36.770Z,17.88
2022-11-01T09:05:40.108Z,18.88
2022-11-01T09:10:56.685Z,17.58
2022-11-01T09:22:05.215Z,17.52
2022-11-01T09:27:08.781Z,17.02
2022-11-01T09:32:19.668Z,15.02
2022-11-01T09:37:15.873Z,13.65
2022-11-01T09:42:16.557Z,11.73
2022-11-01T09:47:17.675Z,9.18
2022-11-01T09:53:18.577Z,8.98
2022-11-01T10:05:29.141Z,8.30
2022-11-01T10:10:44.601Z,7.30
2022-11-01T10:15:50.957Z,7.40
2022-11-01T10:21:09.408Z,7.95
2022-11-01T10:26:20.909Z,6.55
2022-11-01T10:31:23.134Z,6.68
2022-11-01T10:36:25.083Z,7.18
2022-11-01T10:41:30.028Z,6.55
2022-11-01T10:46:35.101Z,7.95
2022-11-01T10:51:34.978Z,8.25
2022-11-01T10:56:41.033Z,7.95
2022-11-01T11:01:43.899Z,8.70
2022-11-01T11:11:59.474Z,6.65
2022-11-01T11:16:59.596Z,7.25
2022-11-01T11:22:04.764Z,6.93
2022-11-01T11:27:31.355Z,8.10
2022-11-01T11:32:41.423Z,8.02
2022-11-01T11:38:14.096Z,7.05
2022-11-01T11:43:42.745Z,6.97
2022-11-01T11:49:38.133Z,6.95
2022-11-01T11:54:57.954Z,7.13
2022-11-01T11:59:56.899Z,8.63
2022-11-01T12:04:57.500Z,8.50
2022-11-01T12:10:00.389Z,9.00
2022-11-01T12:14:58.399Z,8.60
2022-11-01T12:20:02.417Z,8.65
2022-11-01T12:25:05.423Z,8.30
2022-11-01T12:30:05.290Z,8.05
2022-11-01T12:35:08.984Z,7.43
2022-11-01T12:40:21.910Z,7.55
2022-11-01T12:45:30.524Z,7.57
2022-11-01T12:50:42.578Z,7.10
2022-11-01T12:56:01.860Z,7.13
2022-11-01T13:01:35.814Z,8.23
2022-11-01T13:07:00.920Z,8.32
2022-11-01T13:12:08.438Z,8.20
2022-11-01T13:17:11.226Z,9.40
2022-11-01T13:22:19.438Z,9.02
2022-11-01T13:27:20.083Z,9.13
2022-11-01T13:32:22.524Z,8.70
2022-11-01T13:37:35.726Z,9.00
2022-11-01T13:42:38.159Z,9.20
2022-11-01T13:48:08.708Z,9.35
2022-11-01T13:53:11.456Z,8.85
2022-11-01T13:58:08.420Z,9.07
2022-11-01T14:03:22.905Z,12.02
2022-11-01T14:08:30.903Z,13.95
2022-11-01T14:13:50.216Z,16.35
2022-11-01T14:19:20.117Z,20.00
2022-11-01T14:24:33.555Z,15.88
2022-11-01T14:29:36.314Z,13.35
2022-11-01T14:34:39.722Z,18.30
2022-11-01T14:39:40.243Z,20.23
2022-11-01T14:44:40.596Z,12.70
2022-11-01T14:49:49.247Z,10.32
2022-11-01T14:54:55.113Z,9.93
2022-11-01T14:59:55.434Z,11.75
2022-11-01T15:04:50.846Z,11.60
2022-11-01T15:10:06.246Z,11.77
2022-11-01T15:15:05.174Z,14.20
2022-11-01T15:20:00.218Z,13.90
2022-11-01T15:25:00.464Z,16.40
2022-11-01T15:29:57.059Z,18.20
2022-11-01T15:35:07.582Z,19.88
2022-11-01T15:40:34.524Z,22.13
2022-11-01T15:45:46.043Z,22.92
2022-11-01T15:50:53.954Z,23.27
2022-11-01T15:56:07.065Z,23.88
2022-11-01T16:01:04.426Z,22.40
2022-11-01T16:06:19.979Z,22.70
2022-11-01T16:11:29.741Z,20.27
2022-11-01T16:17:02.284Z,19.42
2022-11-01T16:22:06.734Z,18.98
2022-11-01T16:27:43.478Z,17.98
2022-11-01T16:33:13.714Z,17.05
2022-11-01T16:44:44.266Z,17.13
2022-11-01T17:00:00.790Z,17.43
2022-11-01T17:05:41.572Z,22.20
2022-11-01T17:10:49.673Z,20.67
2022-11-01T17:21:50.884Z,22.13
2022-11-01T17:27:01.669Z,26.70
2022-11-01T17:38:12.527Z,29.60
2022-11-01T17:43:25.938Z,29.77
2022-11-01T17:49:27.647Z,31.08
2022-11-01T17:55:09.942Z,31.00
2022-11-01T18:00:25.862Z,27.15
2022-11-01T18:05:22.733Z,26.42
2022-11-01T18:10:37.847Z,28.00
2022-11-01T18:15:49.084Z,22.65
2022-11-01T18:21:10.517Z,19.40
2022-11-01T18:26:31.453Z,20.88
2022-11-01T18:43:24.199Z,17.80
2022-11-01T18:54:53.567Z,18.13
2022-11-01T19:00:15.196Z,18.42
2022-11-01T19:05:23.290Z,19.80
2022-11-01T19:10:26.665Z,33.33
2022-11-01T19:15:34.964Z,23.10
2022-11-01T19:20:58.260Z,23.58
2022-11-01T19:26:09.305Z,21.80
2022-11-01T19:31:21.849Z,18.10
2022-11-01T19:36:40.888Z,16.88
2022-11-01T19:41:59.312Z,18.08
2022-11-01T19:47:43.818Z,18.50
2022-11-01T19:52:48.584Z,18.33
2022-11-01T19:58:55.327Z,17.25
2022-11-01T20:09:58.618Z,20.55
2022-11-01T20:22:20.981Z,41.67
2022-11-01T20:28:13.518Z,35.38
2022-11-01T20:33:51.618Z,29.35
2022-11-01T20:38:56.549Z,94.82
2022-11-01T20:45:11.307Z,91.30
2022-11-01T20:50:26.714Z,16.80
2022-11-01T20:56:01.172Z,14.45
2022-11-01T21:01:50.057Z,14.05
2022-11-01T21:07:21.916Z,14.13
2022-11-01T21:12:44.592Z,14.57
2022-11-01T21:17:43.357Z,13.35
2022-11-01T21:22:46.969Z,12.90
2022-11-01T21:27:58.843Z,14.27
2022-11-01T21:33:56.816Z,14.25
2022-11-01T21:39:05.107Z,14.82
2022-11-01T21:44:32.254Z,14.35
2022-11-01T21:49:32.235Z,13.93
2022-11-01T21:54:43.348Z,12.90
2022-11-01T21:59:43.846Z,12.80
2022-11-01T22:04:41.132Z,13.05
2022-11-01T22:14:59.269Z,12.48
2022-11-01T22:25:44.553Z,12.30
2022-11-01T22:30:46.096Z,11.80
2022-11-01T22:35:45.346Z,11.77
2022-11-01T22:40:41.082Z,12.38
2022-11-01T22:45:43.244Z,10.73
2022-11-01T22:50:41.422Z,11.05
2022-11-01T22:55:44.396Z,11.65
2022-11-01T23:00:39.196Z,11.00
2022-11-01T23:05:35.653Z,10.57
2022-11-01T23:10:36.550Z,10.18
2022-11-01T23:15:31.553Z,9.75
2022-11-01T23:20:25.017Z,9.32
2022-11-01T23:25:18.550Z,9.27
2022-11-01T23:30:14.247Z,8.70
2022-11-01T23:35:15.879Z,8.70
2022-11-01T23:40:16.505Z,8.98
2022-11-01T23:45:22.522Z,9.45
2022-11-01T23:50:21.745Z,8.70
2022-11-01T23:55:21.038Z,9.13
